EDMA

Augsburg Airport

Augsburg, Germany
METAR EDMA 101550Z 26009KT CAVOK 03/00 Q1020
Observed Flight Rules
Dec-10 @ 15:50 UTC (29 minutes ago) Visual Flight Rules
Wind Visibility Clouds
260° at 9 knots 10,000+ meters
  • Clear skies
Temperatures Readings
Current 3°C / 37°F
Dewpoint 0°C / 32°F
Humidity 81%
Altimeter 30.12" Hg
Pressure 1020 hPa
Elevation 463
METAR EDMA 101550Z 26009KT CAVOK 03/00 Q1020
Observed Flight Rules
Dec-10 @ 15:50 UTC
(29 minutes ago)
VFR
Wind Visibility
260° at 9 knots 10,000+ meters
Clouds
  • Clear skies
Temperature Dewpoint
3°C / 37°F 0°C / 32°F
Humidity Altimeter Pressure
81% 30.12" Hg 1020 hPa